createdAt,value
2018-02-26T00:00:44.819Z,0
2018-02-26T00:01:44.287Z,0
2018-02-26T00:02:44.794Z,0
2018-02-26T00:03:44.234Z,0
2018-02-26T00:04:44.481Z,0
2018-02-26T00:05:44.484Z,0
2018-02-26T00:06:44.696Z,0
2018-02-26T00:07:44.470Z,0
2018-02-26T00:08:44.669Z,0
2018-02-26T00:09:44.645Z,0
2018-02-26T00:10:44.372Z,0
2018-02-26T00:11:44.587Z,0
2018-02-26T00:12:44.324Z,0
2018-02-26T00:13:44.579Z,0
2018-02-26T00:14:44.292Z,0
2018-02-26T00:15:44.541Z,0
2018-02-26T00:16:44.525Z,0
2018-02-26T00:17:44.483Z,0
2018-02-26T00:18:44.190Z,0
2018-02-26T00:19:44.440Z,0
2018-02-26T00:20:44.428Z,0
2018-02-26T00:21:44.400Z,0
2018-02-26T00:22:44.466Z,0
2018-02-26T00:23:44.599Z,0
2018-02-26T00:24:44.327Z,0
2018-02-26T00:25:44.376Z,0
2018-02-26T00:26:44.047Z,0
2018-02-26T00:27:44.019Z,0
2018-02-26T00:28:44.260Z,0
2018-02-26T00:29:43.986Z,0
2018-02-26T00:30:44.251Z,0
2018-02-26T00:31:44.195Z,0
2018-02-26T00:32:44.183Z,0
2018-02-26T00:33:44.470Z,0
2018-02-26T00:34:44.136Z,0
2018-02-26T00:35:44.116Z,0
2018-02-26T00:36:43.838Z,0
2018-02-26T00:37:43.837Z,0
2018-02-26T00:38:44.050Z,0
2018-02-26T00:39:44.048Z,0
2018-02-26T00:40:44.031Z,0
2018-02-26T00:41:44.002Z,0
2018-02-26T00:42:43.977Z,0
2018-02-26T00:43:43.705Z,0
2018-02-26T00:44:43.932Z,0
2018-02-26T00:45:43.938Z,0
2018-02-26T00:46:43.926Z,0
2018-02-26T00:47:43.627Z,0
2018-02-26T00:48:43.874Z,0
2018-02-26T00:49:43.836Z,0
2018-02-26T00:50:43.805Z,0
2018-02-26T00:51:43.810Z,0
2018-02-26T00:52:43.781Z,0
2018-02-26T00:53:43.758Z,0
2018-02-26T00:54:43.984Z,0
2018-02-26T00:55:43.716Z,0
2018-02-26T00:56:43.444Z,0
2018-02-26T00:57:43.690Z,0
2018-02-26T00:58:43.654Z,0
2018-02-26T00:59:43.654Z,0
2018-02-26T01:00:43.355Z,0
2018-02-26T01:01:43.608Z,0
2018-02-26T01:02:43.307Z,0
2018-02-26T01:03:43.304Z,0
2018-02-26T01:04:43.276Z,0
2018-02-26T01:05:43.248Z,0
2018-02-26T01:06:43.240Z,0
2018-02-26T01:07:43.204Z,0
2018-02-26T01:08:43.190Z,0
2018-02-26T01:09:43.179Z,0
2018-02-26T01:10:43.165Z,0
2018-02-26T01:11:43.136Z,0
2018-02-26T01:12:43.372Z,0
2018-02-26T01:13:43.355Z,0
2018-02-26T01:14:43.329Z,0
2018-02-26T01:15:43.307Z,0
2018-02-26T01:16:43.092Z,0
2018-02-26T01:17:43.032Z,0
2018-02-26T01:18:43.270Z,0
2018-02-26T01:19:42.968Z,0
2018-02-26T01:20:43.224Z,0
2018-02-26T01:21:43.179Z,0
2018-02-26T01:22:43.197Z,0
2018-02-26T01:23:43.138Z,0
2018-02-26T01:24:43.123Z,0
2018-02-26T01:25:43.105Z,0
2018-02-26T01:26:43.093Z,0
2018-02-26T01:27:43.059Z,0
2018-02-26T01:28:42.795Z,0
2018-02-26T01:29:42.761Z,0
2018-02-26T01:30:43.037Z,0
2018-02-26T01:31:42.989Z,0
2018-02-26T01:32:42.714Z,0
2018-02-26T01:33:42.945Z,0
2018-02-26T01:34:42.930Z,0
2018-02-26T01:35:42.646Z,0
2018-02-26T01:36:42.882Z,0
2018-02-26T01:37:42.871Z,0
2018-02-26T01:38:42.844Z,0
2018-02-26T01:39:42.819Z,0
2018-02-26T01:40:42.554Z,0
2018-02-26T01:41:42.527Z,0
2018-02-26T01:42:42.748Z,0
2018-02-26T01:43:42.221Z,0
2018-02-26T01:44:42.831Z,0
2018-02-26T01:45:42.718Z,0
2018-02-26T01:46:42.675Z,0
2018-02-26T01:47:42.669Z,0
2018-02-26T01:48:42.633Z,0
2018-02-26T01:49:42.645Z,0
2018-02-26T01:50:42.339Z,0
2018-02-26T01:51:42.588Z,0
2018-02-26T01:52:42.572Z,0
2018-02-26T01:53:42.522Z,0
2018-02-26T01:54:42.245Z,0
2018-02-26T01:55:42.482Z,0
2018-02-26T01:56:42.718Z,0
2018-02-26T01:57:42.179Z,0
2018-02-26T01:58:42.442Z,0
2018-02-26T01:59:42.152Z,0
2018-02-26T02:00:42.385Z,0
2018-02-26T02:01:42.370Z,0
2018-02-26T02:02:42.098Z,0
2018-02-26T02:03:42.075Z,0
2018-02-26T02:04:42.064Z,0
2018-02-26T02:05:42.062Z,0
2018-02-26T02:06:42.274Z,0
2018-02-26T02:07:42.251Z,0
2018-02-26T02:08:41.987Z,0
2018-02-26T02:09:42.216Z,0
2018-02-26T02:10:42.183Z,0
2018-02-26T02:11:42.164Z,0
2018-02-26T02:12:42.146Z,0
2018-02-26T02:13:42.121Z,0
2018-02-26T02:14:42.090Z,0
2018-02-26T02:15:42.084Z,0
2018-02-26T02:16:42.043Z,0
2018-02-26T02:17:42.044Z,0
2018-02-26T02:18:42.028Z,0
2018-02-26T02:19:42.011Z,0
2018-02-26T02:20:41.726Z,0
2018-02-26T02:21:41.962Z,0
2018-02-26T02:22:41.945Z,0
2018-02-26T02:23:41.914Z,0
2018-02-26T02:24:41.898Z,0
2018-02-26T02:25:41.876Z,0
2018-02-26T02:26:41.873Z,0
2018-02-26T02:27:42.070Z,0
2018-02-26T02:28:41.813Z,0
2018-02-26T02:29:41.535Z,0
2018-02-26T02:30:41.507Z,0
2018-02-26T02:31:41.479Z,0
2018-02-26T02:32:41.464Z,0
2018-02-26T02:33:41.722Z,0
2018-02-26T02:34:41.706Z,0
2018-02-26T02:35:41.674Z,0
2018-02-26T02:36:41.679Z,0
2018-02-26T02:37:41.622Z,0
2018-02-26T02:38:41.960Z,0
2018-02-26T02:39:41.611Z,0
2018-02-26T02:40:41.573Z,0
2018-02-26T02:41:41.565Z,0
2018-02-26T02:42:41.548Z,0
2018-02-26T02:43:41.494Z,0
2018-02-26T02:44:41.506Z,0
2018-02-26T02:45:41.503Z,0
2018-02-26T02:46:41.439Z,0
2018-02-26T02:47:41.411Z,0
2018-02-26T02:48:41.405Z,0
2018-02-26T02:49:41.371Z,0
2018-02-26T02:50:41.360Z,0
2018-02-26T02:51:41.330Z,0
2018-02-26T02:52:41.317Z,0
2018-02-26T02:53:41.308Z,0
2018-02-26T02:54:41.275Z,0
2018-02-26T02:55:41.243Z,0
2018-02-26T02:56:40.986Z,0
2018-02-26T02:57:40.959Z,0
2018-02-26T02:58:41.208Z,0
2018-02-26T02:59:41.168Z,0
2018-02-26T03:00:41.163Z,0
2018-02-26T03:01:40.937Z,0
2018-02-26T03:02:41.109Z,0
2018-02-26T03:03:41.097Z,0
2018-02-26T03:04:41.086Z,0
2018-02-26T03:05:41.050Z,0
2018-02-26T03:06:40.776Z,0
2018-02-26T03:07:40.760Z,0
2018-02-26T03:08:40.984Z,0
2018-02-26T03:09:40.950Z,0
2018-02-26T03:10:40.951Z,0
2018-02-26T03:11:40.913Z,0
2018-02-26T03:12:40.904Z,0
2018-02-26T03:13:40.872Z,0
2018-02-26T03:14:40.909Z,0
2018-02-26T03:15:40.841Z,0
2018-02-26T03:16:40.808Z,0
2018-02-26T03:17:40.782Z,0
2018-02-26T03:18:40.763Z,0
2018-02-26T03:19:40.502Z,0
2018-02-26T03:20:40.720Z,0
2018-02-26T03:21:40.707Z,0
2018-02-26T03:22:40.675Z,0
2018-02-26T03:23:40.657Z,0
2018-02-26T03:24:40.644Z,0
2018-02-26T03:25:40.612Z,0
2018-02-26T03:26:40.591Z,0
2018-02-26T03:27:40.617Z,0
2018-02-26T03:28:40.566Z,0
2018-02-26T03:29:40.559Z,0
2018-02-26T03:30:40.527Z,0
2018-02-26T03:31:40.265Z,0
2018-02-26T03:32:40.473Z,0
2018-02-26T03:33:40.445Z,0
2018-02-26T03:34:39.905Z,0
2018-02-26T03:35:40.411Z,0
2018-02-26T03:36:40.410Z,0
2018-02-26T03:37:40.128Z,0
2018-02-26T03:38:40.107Z,0
2018-02-26T03:39:40.329Z,0
2018-02-26T03:40:40.296Z,0
2018-02-26T03:41:40.273Z,0
2018-02-26T03:42:40.262Z,0
2018-02-26T03:43:39.994Z,0
2018-02-26T03:44:40.222Z,0
2018-02-26T03:45:39.944Z,0
2018-02-26T03:46:39.684Z,0
2018-02-26T03:47:40.151Z,0
2018-02-26T03:48:40.126Z,0
2018-02-26T03:49:40.134Z,0
2018-02-26T03:50:40.098Z,0
2018-02-26T03:51:40.062Z,0
2018-02-26T03:52:40.055Z,0
2018-02-26T03:53:40.037Z,0
2018-02-26T03:54:40.013Z,0
2018-02-26T03:55:39.203Z,0
2018-02-26T03:56:39.725Z,0
2018-02-26T03:57:39.951Z,0
2018-02-26T03:58:39.676Z,0
2018-02-26T03:59:39.903Z,0
2018-02-26T04:00:39.896Z,0
2018-02-26T04:01:39.608Z,0
2018-02-26T04:02:39.846Z,0
2018-02-26T04:03:39.821Z,0
2018-02-26T04:04:39.553Z,0
2018-02-26T04:05:39.528Z,0
2018-02-26T04:06:39.757Z,0
2018-02-26T04:07:39.476Z,0
2018-02-26T04:08:39.457Z,0
2018-02-26T04:09:39.431Z,0
2018-02-26T04:10:39.679Z,0
2018-02-26T04:11:39.667Z,0
2018-02-26T04:12:39.383Z,0
2018-02-26T04:13:39.645Z,0
2018-02-26T04:14:39.586Z,0
2018-02-26T04:15:39.318Z,0
2018-02-26T04:16:39.574Z,0
2018-02-26T04:17:39.540Z,0
2018-02-26T04:18:39.510Z,0
2018-02-26T04:19:39.246Z,0
2018-02-26T04:20:39.473Z,0
2018-02-26T04:21:39.451Z,0
2018-02-26T04:22:39.434Z,0
2018-02-26T04:23:39.427Z,0
2018-02-26T04:24:39.392Z,0
2018-02-26T04:25:39.352Z,0
2018-02-26T04:26:39.353Z,0
2018-02-26T04:27:39.325Z,0
2018-02-26T04:28:39.304Z,0
2018-02-26T04:29:39.289Z,0
2018-02-26T04:30:39.273Z,0
2018-02-26T04:31:39.236Z,0
2018-02-26T04:32:39.247Z,0
2018-02-26T04:33:38.936Z,0
2018-02-26T04:34:39.189Z,0
2018-02-26T04:35:39.182Z,0
2018-02-26T04:36:39.135Z,0
2018-02-26T04:37:38.855Z,0
2018-02-26T04:38:39.113Z,0
2018-02-26T04:39:39.077Z,0
2018-02-26T04:40:39.105Z,0
2018-02-26T04:41:38.781Z,0
2018-02-26T04:42:39.021Z,0
2018-02-26T04:43:39.019Z,0
2018-02-26T04:44:38.970Z,0
2018-02-26T04:45:38.940Z,0
2018-02-26T04:46:38.932Z,0
2018-02-26T04:47:38.914Z,0
2018-02-26T04:48:38.906Z,0
2018-02-26T04:49:38.641Z,0
2018-02-26T04:50:38.845Z,0
2018-02-26T04:51:38.579Z,0
2018-02-26T04:52:38.556Z,0
2018-02-26T04:53:38.807Z,0
2018-02-26T04:54:38.769Z,0
2018-02-26T04:55:38.548Z,0
2018-02-26T04:56:38.470Z,0
2018-02-26T04:57:38.462Z,0
2018-02-26T04:58:38.764Z,0
2018-02-26T04:59:38.707Z,0
2018-02-26T05:00:38.657Z,0
2018-02-26T05:01:38.643Z,0
2018-02-26T05:02:38.349Z,0
2018-02-26T05:03:38.329Z,0
2018-02-26T05:04:38.598Z,0
2018-02-26T05:05:38.545Z,0
2018-02-26T05:06:38.553Z,0
2018-02-26T05:07:38.513Z,0
2018-02-26T05:08:38.502Z,0
2018-02-26T05:09:38.477Z,0
2018-02-26T05:10:38.186Z,0
2018-02-26T05:11:38.435Z,0
2018-02-26T05:12:38.404Z,0
2018-02-26T05:13:37.893Z,0
2018-02-26T05:14:38.379Z,0
2018-02-26T05:15:38.357Z,0
2018-02-26T05:16:38.090Z,0
2018-02-26T05:17:38.414Z,0
2018-02-26T05:18:38.294Z,0
2018-02-26T05:19:38.013Z,0
2018-02-26T05:20:38.255Z,0
2018-02-26T05:21:38.266Z,0
2018-02-26T05:22:37.705Z,0
2018-02-26T05:23:38.188Z,0
2018-02-26T05:24:37.915Z,0
2018-02-26T05:25:38.175Z,0
2018-02-26T05:26:38.150Z,0
2018-02-26T05:27:37.854Z,0
2018-02-26T05:28:38.096Z,0
2018-02-26T05:29:38.133Z,0
2018-02-26T05:30:38.066Z,0
2018-02-26T05:31:37.778Z,0
2018-02-26T05:32:38.026Z,0
2018-02-26T05:33:37.999Z,0
2018-02-26T05:34:37.719Z,0
2018-02-26T05:35:37.968Z,0
2018-02-26T05:36:37.931Z,0
2018-02-26T05:37:37.927Z,0
2018-02-26T05:38:37.913Z,0
2018-02-26T05:39:37.885Z,0
2018-02-26T05:40:37.607Z,0
2018-02-26T05:41:37.852Z,0
2018-02-26T05:42:37.563Z,0
2018-02-26T05:43:37.547Z,0
2018-02-26T05:44:37.812Z,0
2018-02-26T05:45:37.755Z,0
2018-02-26T05:46:37.482Z,0
2018-02-26T05:47:37.462Z,0
2018-02-26T05:48:37.710Z,0
2018-02-26T05:49:37.432Z,0
2018-02-26T05:50:37.405Z,0
2018-02-26T05:51:37.676Z,0
2018-02-26T05:52:37.113Z,5
2018-02-26T05:53:37.596Z,5
2018-02-26T05:54:37.337Z,5
2018-02-26T05:55:37.341Z,5
2018-02-26T05:56:37.548Z,5
2018-02-26T05:57:37.530Z,5
2018-02-26T05:58:37.254Z,10
2018-02-26T05:59:37.543Z,10
2018-02-26T06:00:37.467Z,10
2018-02-26T06:01:37.186Z,10
2018-02-26T06:02:37.607Z,15
2018-02-26T06:03:37.413Z,15
2018-02-26T06:04:37.120Z,15
2018-02-26T06:05:37.372Z,15
2018-02-26T06:06:37.348Z,20
2018-02-26T06:07:37.056Z,20
2018-02-26T06:08:37.307Z,20
2018-02-26T06:09:37.296Z,25
2018-02-26T06:10:37.019Z,25
2018-02-26T06:11:37.288Z,30
2018-02-26T06:12:37.227Z,30
2018-02-26T06:13:37.006Z,30
2018-02-26T06:14:37.204Z,35
2018-02-26T06:15:37.307Z,35
2018-02-26T06:16:37.158Z,40
2018-02-26T06:17:37.127Z,40
2018-02-26T06:18:37.140Z,40
2018-02-26T06:19:36.579Z,40
2018-02-26T06:20:37.087Z,45
2018-02-26T06:21:37.235Z,45
2018-02-26T06:22:37.050Z,50
2018-02-26T06:23:36.744Z,50
2018-02-26T06:24:36.998Z,55
2018-02-26T06:25:36.719Z,60
2018-02-26T06:26:36.963Z,60
2018-02-26T06:27:36.940Z,65
2018-02-26T06:28:36.914Z,65
2018-02-26T06:29:36.906Z,70
2018-02-26T06:30:36.607Z,75
2018-02-26T06:31:36.841Z,80
2018-02-26T06:32:36.844Z,85
2018-02-26T06:33:36.945Z,90
2018-02-26T06:34:36.821Z,95
2018-02-26T06:35:36.794Z,100
2018-02-26T06:36:36.743Z,105
2018-02-26T06:37:36.467Z,105
2018-02-26T06:38:36.458Z,110
2018-02-26T06:39:36.693Z,115
2018-02-26T06:40:36.673Z,120
2018-02-26T06:41:36.129Z,120
2018-02-26T06:42:36.363Z,125
2018-02-26T06:43:36.621Z,125
2018-02-26T06:44:36.347Z,130
2018-02-26T06:45:36.578Z,140
2018-02-26T06:46:36.559Z,145
2018-02-26T06:47:36.527Z,145
2018-02-26T06:48:36.261Z,150
2018-02-26T06:49:36.238Z,150
2018-02-26T06:50:36.473Z,155
2018-02-26T06:51:36.198Z,155
2018-02-26T06:52:36.431Z,160
2018-02-26T06:53:36.163Z,165
2018-02-26T06:54:36.401Z,180
2018-02-26T06:55:36.385Z,190
2018-02-26T06:56:36.374Z,195
2018-02-26T06:57:36.346Z,205
2018-02-26T06:58:36.327Z,210
2018-02-26T06:59:36.324Z,215
2018-02-26T07:00:36.057Z,220
2018-02-26T07:01:36.290Z,225
2018-02-26T07:02:36.258Z,230
2018-02-26T07:03:36.239Z,235
2018-02-26T07:04:35.957Z,245
2018-02-26T07:05:36.275Z,255
2018-02-26T07:06:36.204Z,260
2018-02-26T07:07:36.174Z,265
2018-02-26T07:08:36.152Z,280
2018-02-26T07:09:36.167Z,285
2018-02-26T07:10:36.170Z,295
2018-02-26T07:11:36.119Z,300
2018-02-26T07:12:36.097Z,310
2018-02-26T07:13:35.834Z,320
2018-02-26T07:14:35.819Z,320
2018-02-26T07:15:36.055Z,325
2018-02-26T07:16:35.780Z,335
2018-02-26T07:17:35.757Z,345
2018-02-26T07:18:35.992Z,365
2018-02-26T07:19:35.731Z,380
2018-02-26T07:20:36.004Z,375
2018-02-26T07:21:35.968Z,300
2018-02-26T07:22:35.953Z,360
2018-02-26T07:23:35.924Z,335
2018-02-26T07:24:35.658Z,295
2018-02-26T07:25:35.889Z,315
2018-02-26T07:26:35.621Z,305
2018-02-26T07:27:35.870Z,315
2018-02-26T07:28:35.866Z,315
2018-02-26T07:29:35.322Z,295
2018-02-26T07:30:35.821Z,315
2018-02-26T07:31:35.815Z,325
2018-02-26T07:32:35.534Z,265
2018-02-26T07:33:35.528Z,335
2018-02-26T07:34:34.979Z,340
2018-02-26T07:35:35.495Z,345
2018-02-26T07:36:35.476Z,350
2018-02-26T07:37:35.709Z,355
2018-02-26T07:38:35.439Z,355
2018-02-26T07:39:35.156Z,360
2018-02-26T07:40:35.679Z,370
2018-02-26T07:41:35.386Z,385
2018-02-26T07:42:34.856Z,390
2018-02-26T07:43:35.634Z,390
2018-02-26T07:44:35.615Z,400
2018-02-26T07:45:34.810Z,405
2018-02-26T07:46:35.059Z,415
2018-02-26T07:47:35.297Z,415
2018-02-26T07:48:35.278Z,425
2018-02-26T07:49:35.011Z,425
2018-02-26T07:50:34.993Z,430
2018-02-26T07:51:35.259Z,430
2018-02-26T07:52:35.239Z,445
2018-02-26T07:53:35.433Z,445
2018-02-26T07:54:35.194Z,450
2018-02-26T07:55:35.182Z,450
2018-02-26T07:56:35.166Z,365
2018-02-26T07:57:35.151Z,230
2018-02-26T07:58:35.468Z,185
2018-02-26T07:59:35.361Z,185
2018-02-26T08:00:35.125Z,185
2018-02-26T08:01:35.347Z,180
2018-02-26T08:02:35.365Z,180
2018-02-26T08:03:34.817Z,180
2018-02-26T08:04:34.785Z,180
2018-02-26T08:05:35.046Z,185
2018-02-26T08:06:34.793Z,190
2018-02-26T08:07:34.992Z,190
2018-02-26T08:08:34.717Z,185
2018-02-26T08:09:35.236Z,185
2018-02-26T08:10:34.939Z,185
2018-02-26T08:11:34.670Z,190
2018-02-26T08:12:35.164Z,190
2018-02-26T08:13:35.148Z,200
2018-02-26T08:14:34.599Z,215
2018-02-26T08:15:34.859Z,245
2018-02-26T08:16:35.102Z,260
2018-02-26T08:17:35.069Z,235
2018-02-26T08:18:35.071Z,245
2018-02-26T08:19:34.883Z,315
2018-02-26T08:20:35.044Z,335
2018-02-26T08:21:35.023Z,270
2018-02-26T08:22:34.753Z,285
2018-02-26T08:23:34.981Z,260
2018-02-26T08:24:34.693Z,300
2018-02-26T08:25:34.657Z,280
2018-02-26T08:26:34.958Z,320
2018-02-26T08:27:34.378Z,305
2018-02-26T08:28:34.879Z,255
2018-02-26T08:29:34.860Z,235
2018-02-26T08:30:34.844Z,250
2018-02-26T08:31:34.576Z,260
2018-02-26T08:32:34.553Z,300
2018-02-26T08:33:34.792Z,330
2018-02-26T08:34:34.550Z,335
2018-02-26T08:35:34.746Z,340
2018-02-26T08:36:34.550Z,290
2018-02-26T08:37:34.459Z,230
2018-02-26T08:38:34.730Z,230
2018-02-26T08:39:34.693Z,235
2018-02-26T08:40:34.406Z,260
2018-02-26T08:41:34.498Z,310
2018-02-26T08:42:34.353Z,300
2018-02-26T08:43:34.625Z,335
2018-02-26T08:44:34.344Z,345
2018-02-26T08:45:34.315Z,260
2018-02-26T08:46:34.310Z,215
2018-02-26T08:47:34.533Z,220
2018-02-26T08:48:34.515Z,230
2018-02-26T08:49:34.329Z,245
2018-02-26T08:50:34.473Z,260
2018-02-26T08:51:34.206Z,270
2018-02-26T08:52:34.458Z,240
2018-02-26T08:53:34.427Z,225
2018-02-26T08:54:34.513Z,210
2018-02-26T08:55:34.393Z,215
2018-02-26T08:56:34.137Z,225
2018-02-26T08:57:34.377Z,230
2018-02-26T08:58:34.369Z,220
2018-02-26T08:59:34.105Z,215
2018-02-26T09:00:34.055Z,210
2018-02-26T09:01:34.291Z,225
2018-02-26T09:02:34.029Z,245
2018-02-26T09:03:34.279Z,235
2018-02-26T09:04:34.250Z,230
2018-02-26T09:05:34.224Z,235
2018-02-26T09:06:33.968Z,250
2018-02-26T09:07:34.208Z,255
2018-02-26T09:08:34.162Z,245
2018-02-26T09:09:33.880Z,245
2018-02-26T09:10:34.126Z,235
2018-02-26T09:11:33.920Z,230
2018-02-26T09:12:33.830Z,245
2018-02-26T09:13:34.092Z,265
2018-02-26T09:14:33.811Z,285
2018-02-26T09:15:34.041Z,255
2018-02-26T09:16:34.022Z,255
2018-02-26T09:17:34.009Z,255
2018-02-26T09:18:34.012Z,240
2018-02-26T09:19:33.717Z,235
2018-02-26T09:20:33.689Z,235
2018-02-26T09:21:33.417Z,255
2018-02-26T09:22:33.651Z,300
2018-02-26T09:23:33.955Z,350
2018-02-26T09:24:33.629Z,390
2018-02-26T09:25:33.595Z,375
2018-02-26T09:26:33.868Z,380
2018-02-26T09:27:33.861Z,395
2018-02-26T09:28:33.573Z,330
2018-02-26T09:29:33.268Z,305
2018-02-26T09:30:33.775Z,330
2018-02-26T09:31:33.788Z,290
2018-02-26T09:32:33.752Z,275
2018-02-26T09:33:33.199Z,245
2018-02-26T09:34:32.932Z,250
2018-02-26T09:35:33.669Z,255
2018-02-26T09:36:33.676Z,255
2018-02-26T09:37:33.140Z,240
2018-02-26T09:38:33.668Z,240
2018-02-26T09:39:33.102Z,255
2018-02-26T09:40:33.357Z,270
2018-02-26T09:41:33.357Z,315
2018-02-26T09:42:33.313Z,355
2018-02-26T09:43:33.029Z,370
2018-02-26T09:44:33.065Z,370
2018-02-26T09:45:33.509Z,380
2018-02-26T09:46:33.518Z,380
2018-02-26T09:47:33.013Z,380
2018-02-26T09:48:33.488Z,370
2018-02-26T09:49:33.199Z,350
2018-02-26T09:50:33.442Z,335
2018-02-26T09:51:33.145Z,330
2018-02-26T09:52:33.469Z,330
2018-02-26T09:53:33.423Z,360
2018-02-26T09:54:33.347Z,400
2018-02-26T09:55:32.858Z,315
2018-02-26T09:56:33.080Z,315
2018-02-26T09:57:33.334Z,335
2018-02-26T09:58:33.044Z,365
2018-02-26T09:59:33.045Z,405
2018-02-26T10:00:33.249Z,385
2018-02-26T10:01:33.243Z,355
2018-02-26T10:02:33.235Z,340
2018-02-26T10:03:33.212Z,330
2018-02-26T10:04:32.939Z,340
2018-02-26T10:05:33.182Z,355
2018-02-26T10:06:33.306Z,380
2018-02-26T10:07:32.626Z,395
2018-02-26T10:08:33.132Z,390
2018-02-26T10:09:33.126Z,365
2018-02-26T10:10:33.107Z,340
2018-02-26T10:11:32.849Z,340
2018-02-26T10:12:33.098Z,365
2018-02-26T10:13:32.868Z,385
2018-02-26T10:14:33.031Z,405
2018-02-26T10:15:33.033Z,400
2018-02-26T10:16:32.480Z,385
2018-02-26T10:17:32.984Z,390
2018-02-26T10:18:32.469Z,390
2018-02-26T10:19:32.565Z,400
2018-02-26T10:20:32.943Z,400
2018-02-26T10:21:32.689Z,405
2018-02-26T10:22:32.384Z,385
2018-02-26T10:23:32.898Z,370
2018-02-26T10:24:32.626Z,350
2018-02-26T10:25:32.858Z,340
2018-02-26T10:26:32.842Z,335
2018-02-26T10:27:33.048Z,325
2018-02-26T10:28:32.820Z,325
2018-02-26T10:29:32.831Z,325
2018-02-26T10:30:32.531Z,305
2018-02-26T10:31:32.514Z,295
2018-02-26T10:32:32.756Z,300
2018-02-26T10:33:32.735Z,305
2018-02-26T10:34:32.482Z,350
2018-02-26T10:35:32.697Z,375
2018-02-26T10:36:32.709Z,350
2018-02-26T10:37:32.397Z,370
2018-02-26T10:38:32.171Z,395
2018-02-26T10:39:32.679Z,380
2018-02-26T10:40:32.396Z,370
2018-02-26T10:41:32.372Z,365
2018-02-26T10:42:32.346Z,385
2018-02-26T10:43:32.331Z,370
2018-02-26T10:44:32.596Z,340
2018-02-26T10:45:51.708Z,315
2018-02-26T10:46:32.252Z,325
2018-02-26T10:47:32.462Z,310
2018-02-26T10:48:32.510Z,315
2018-02-26T10:49:32.217Z,325
2018-02-26T10:50:32.436Z,315
2018-02-26T10:51:32.433Z,290
2018-02-26T10:52:32.136Z,280
2018-02-26T10:53:32.383Z,270
2018-02-26T10:54:32.398Z,265
2018-02-26T10:55:32.324Z,270
2018-02-26T10:56:32.336Z,280
2018-02-26T10:57:32.408Z,315
2018-02-26T10:58:32.331Z,340
2018-02-26T10:59:32.023Z,330
2018-02-26T11:00:31.990Z,295
2018-02-26T11:01:32.232Z,285
2018-02-26T11:02:32.219Z,275
2018-02-26T11:03:31.967Z,285
2018-02-26T11:04:31.925Z,310
2018-02-26T11:05:31.928Z,320
2018-02-26T11:06:32.180Z,350
2018-02-26T11:07:32.149Z,315
2018-02-26T11:08:32.149Z,310
2018-02-26T11:09:32.275Z,330
2018-02-26T11:10:32.111Z,345
2018-02-26T11:11:32.055Z,390
2018-02-26T11:12:32.052Z,415
2018-02-26T11:13:32.123Z,370
2018-02-26T11:14:31.560Z,320
2018-02-26T11:15:32.049Z,315
2018-02-26T11:16:32.032Z,310
2018-02-26T11:17:32.357Z,300
2018-02-26T11:18:31.732Z,310
2018-02-26T11:19:31.435Z,330
2018-02-26T11:20:31.961Z,350
2018-02-26T11:21:32.000Z,380
2018-02-26T11:22:31.670Z,330
2018-02-26T11:23:31.928Z,320
2018-02-26T11:24:31.596Z,345
2018-02-26T11:25:31.830Z,355
2018-02-26T11:26:31.858Z,395
2018-02-26T11:27:31.577Z,410
2018-02-26T11:28:31.796Z,370
2018-02-26T11:29:31.792Z,330
2018-02-26T11:30:31.752Z,345
2018-02-26T11:31:31.253Z,315
2018-02-26T11:32:31.701Z,265
2018-02-26T11:33:31.721Z,325
2018-02-26T11:34:31.927Z,355
2018-02-26T11:35:31.440Z,335
2018-02-26T11:36:31.391Z,305
2018-02-26T11:37:31.881Z,275
2018-02-26T11:38:31.667Z,255
2018-02-26T11:39:31.130Z,275
2018-02-26T11:40:31.561Z,315
2018-02-26T11:41:31.587Z,290
2018-02-26T11:42:31.576Z,240
2018-02-26T11:43:31.544Z,230
2018-02-26T11:44:31.020Z,215
2018-02-26T11:45:31.557Z,210
2018-02-26T11:46:31.480Z,210
2018-02-26T11:47:31.275Z,205
2018-02-26T11:48:31.458Z,210
2018-02-26T11:49:31.180Z,220
2018-02-26T11:50:30.975Z,230
2018-02-26T11:51:31.184Z,230
2018-02-26T11:52:31.413Z,240
2018-02-26T11:53:31.559Z,255
2018-02-26T11:54:31.188Z,265
2018-02-26T11:55:31.381Z,250
2018-02-26T11:56:31.356Z,245
2018-02-26T11:57:31.328Z,260
2018-02-26T11:58:31.030Z,255
2018-02-26T11:59:31.057Z,255
2018-02-26T12:00:31.040Z,255
2018-02-26T12:01:31.268Z,275
2018-02-26T12:02:31.262Z,325
2018-02-26T12:03:30.947Z,360
2018-02-26T12:04:31.215Z,340
2018-02-26T12:05:31.376Z,350
2018-02-26T12:06:30.957Z,380
2018-02-26T12:07:31.180Z,425
2018-02-26T12:08:31.663Z,375
2018-02-26T12:09:30.909Z,320
2018-02-26T12:10:31.090Z,350
2018-02-26T12:11:30.821Z,370
2018-02-26T12:12:31.265Z,345
2018-02-26T12:13:30.565Z,375
2018-02-26T12:14:30.757Z,420
2018-02-26T12:15:30.785Z,360
2018-02-26T12:16:30.968Z,340
2018-02-26T12:17:30.497Z,355
2018-02-26T12:18:30.959Z,345
2018-02-26T12:19:30.468Z,335
2018-02-26T12:20:30.887Z,360
2018-02-26T12:21:30.683Z,375
2018-02-26T12:22:30.993Z,330
2018-02-26T12:23:30.926Z,345
2018-02-26T12:24:30.902Z,370
2018-02-26T12:25:30.343Z,310
2018-02-26T12:26:30.853Z,315
2018-02-26T12:27:30.823Z,270
2018-02-26T12:28:30.835Z,305
2018-02-26T12:29:30.318Z,295
2018-02-26T12:30:30.521Z,250
2018-02-26T12:31:30.743Z,240
2018-02-26T12:32:30.842Z,260
2018-02-26T12:33:30.485Z,285
2018-02-26T12:34:30.754Z,250
2018-02-26T12:35:30.737Z,255
2018-02-26T12:36:30.702Z,285
2018-02-26T12:37:30.680Z,310
2018-02-26T12:38:30.658Z,300
2018-02-26T12:39:30.940Z,300
2018-02-26T12:40:30.649Z,300
2018-02-26T12:41:30.381Z,315
2018-02-26T12:42:30.633Z,315
2018-02-26T12:43:30.352Z,305
2018-02-26T12:44:30.569Z,295
2018-02-26T12:45:30.569Z,290
2018-02-26T12:46:30.283Z,250
2018-02-26T12:47:30.538Z,275
2018-02-26T12:48:30.497Z,265
2018-02-26T12:49:30.244Z,270
2018-02-26T12:50:30.300Z,305
2018-02-26T12:51:30.465Z,305
2018-02-26T12:52:30.457Z,255
2018-02-26T12:53:30.187Z,275
2018-02-26T12:54:30.216Z,265
2018-02-26T12:55:30.399Z,265
2018-02-26T12:56:30.394Z,270
2018-02-26T12:57:30.101Z,290
2018-02-26T12:58:30.359Z,295
2018-02-26T12:59:30.090Z,280
2018-02-26T13:00:30.059Z,280
2018-02-26T13:01:30.030Z,290
2018-02-26T13:02:29.780Z,250
2018-02-26T13:03:30.005Z,235
2018-02-26T13:04:30.000Z,250
2018-02-26T13:05:30.253Z,270
2018-02-26T13:06:29.949Z,270
2018-02-26T13:07:30.220Z,225
2018-02-26T13:08:30.196Z,205
2018-02-26T13:09:29.405Z,215
2018-02-26T13:10:30.214Z,230
2018-02-26T13:11:29.889Z,245
2018-02-26T13:12:29.608Z,260
2018-02-26T13:13:29.860Z,265
2018-02-26T13:14:30.132Z,250
2018-02-26T13:15:29.805Z,230
2018-02-26T13:16:30.049Z,230
2018-02-26T13:17:29.793Z,250
2018-02-26T13:18:30.032Z,240
2018-02-26T13:19:29.228Z,220
2018-02-26T13:20:29.973Z,210
2018-02-26T13:21:29.967Z,220
2018-02-26T13:22:29.958Z,220
2018-02-26T13:23:29.942Z,220
2018-02-26T13:24:29.954Z,230
2018-02-26T13:25:29.685Z,220
2018-02-26T13:26:29.616Z,230
2018-02-26T13:27:29.595Z,230
2018-02-26T13:28:29.849Z,235
2018-02-26T13:29:29.548Z,230
2018-02-26T13:30:29.277Z,215
2018-02-26T13:31:29.561Z,205
2018-02-26T13:32:29.862Z,200
2018-02-26T13:33:29.541Z,200
2018-02-26T13:34:28.964Z,210
2018-02-26T13:35:29.726Z,225
2018-02-26T13:36:29.447Z,250
2018-02-26T13:37:29.441Z,240
2018-02-26T13:38:28.885Z,220
2018-02-26T13:39:29.651Z,200
2018-02-26T13:40:29.360Z,205
2018-02-26T13:41:29.398Z,215
2018-02-26T13:42:29.858Z,240
2018-02-26T13:43:29.566Z,270
2018-02-26T13:44:29.032Z,270
2018-02-26T13:45:29.309Z,250
2018-02-26T13:46:29.527Z,240
2018-02-26T13:47:29.493Z,235
2018-02-26T13:48:28.965Z,245
2018-02-26T13:49:28.955Z,250
2018-02-26T13:50:29.482Z,245
2018-02-26T13:51:29.189Z,230
2018-02-26T13:52:29.425Z,255
2018-02-26T13:53:29.145Z,275
2018-02-26T13:54:29.390Z,255
2018-02-26T13:55:29.380Z,215
2018-02-26T13:56:29.364Z,210
2018-02-26T13:57:29.326Z,210
2018-02-26T13:58:29.343Z,220
2018-02-26T13:59:29.048Z,215
2018-02-26T14:00:29.289Z,220
2018-02-26T14:01:29.025Z,220
2018-02-26T14:02:28.733Z,220
2018-02-26T14:03:28.966Z,195
2018-02-26T14:04:28.988Z,185
2018-02-26T14:05:29.200Z,175
2018-02-26T14:06:29.273Z,170
2018-02-26T14:07:29.165Z,165
2018-02-26T14:08:28.870Z,170
2018-02-26T14:09:28.608Z,165
2018-02-26T14:10:29.115Z,170
2018-02-26T14:11:29.109Z,175
2018-02-26T14:12:29.068Z,175